createdAt,value
2023-01-21T00:01:17.954Z,11.70
2023-01-21T00:05:19.854Z,10.87
2023-01-21T00:09:21.879Z,10.17
2023-01-21T00:13:23.925Z,10.93
2023-01-21T00:17:25.871Z,10.70
2023-01-21T00:21:27.789Z,11.30
2023-01-21T00:25:29.873Z,11.20
2023-01-21T00:29:31.800Z,10.33
2023-01-21T00:33:34.091Z,11.20
2023-01-21T00:37:35.989Z,10.70
2023-01-21T00:41:37.965Z,9.83
2023-01-21T00:45:39.899Z,9.90
2023-01-21T00:49:41.787Z,10.90
2023-01-21T00:53:43.741Z,11.17
2023-01-21T00:57:45.744Z,10.73
2023-01-21T01:01:47.778Z,10.43
2023-01-21T01:05:49.691Z,13.60
2023-01-21T01:09:51.643Z,9.43
2023-01-21T01:13:57.941Z,9.70
2023-01-21T01:17:59.851Z,15.63
2023-01-21T01:22:01.808Z,10.17
2023-01-21T01:26:08.124Z,9.67
2023-01-21T01:30:10.629Z,9.77
2023-01-21T01:34:12.621Z,8.87
2023-01-21T01:38:22.165Z,9.10
2023-01-21T01:42:24.343Z,9.30
2023-01-21T01:46:29.517Z,8.90
2023-01-21T01:50:35.364Z,9.43
2023-01-21T01:54:42.958Z,9.80
2023-01-21T01:58:46.720Z,9.53
2023-01-21T02:03:08.740Z,10.27
2023-01-21T02:07:11.388Z,9.47
2023-01-21T02:11:19.091Z,9.60
2023-01-21T02:15:21.920Z,9.03
2023-01-21T02:19:45.043Z,9.73
2023-01-21T02:24:11.933Z,8.80
2023-01-21T02:28:32.523Z,9.03
2023-01-21T02:32:52.543Z,9.33
2023-01-21T02:37:00.678Z,9.20
2023-01-21T02:41:36.613Z,8.43
2023-01-21T02:45:47.245Z,8.33
2023-01-21T02:50:17.414Z,8.87
2023-01-21T02:54:41.280Z,8.70
2023-01-21T02:58:48.574Z,8.40
2023-01-21T03:03:02.882Z,8.67
2023-01-21T03:07:20.224Z,8.43
2023-01-21T03:11:23.291Z,8.87
2023-01-21T03:15:54.606Z,8.37
2023-01-21T03:20:19.588Z,8.07
2023-01-21T03:24:22.154Z,8.20
2023-01-21T03:28:27.432Z,8.20
2023-01-21T03:32:33.056Z,8.80
2023-01-21T03:37:00.940Z,8.00
2023-01-21T03:41:09.212Z,9.30
2023-01-21T03:45:12.103Z,7.90
2023-01-21T03:49:22.928Z,8.03
2023-01-21T03:53:25.287Z,8.03
2023-01-21T03:57:27.283Z,8.20
2023-01-21T04:01:29.280Z,9.53
2023-01-21T04:05:31.231Z,8.83
2023-01-21T04:09:33.166Z,8.37
2023-01-21T04:13:35.300Z,7.87
2023-01-21T04:17:37.282Z,8.57
2023-01-21T04:21:39.242Z,8.70
2023-01-21T04:25:41.205Z,8.20
2023-01-21T04:29:43.181Z,9.03
2023-01-21T04:33:45.122Z,8.67
2023-01-21T04:37:47.033Z,8.77
2023-01-21T04:41:48.983Z,8.03
2023-01-21T04:45:50.961Z,7.43
2023-01-21T04:49:53.597Z,8.17
2023-01-21T04:53:55.674Z,8.23
2023-01-21T04:57:57.581Z,7.57
2023-01-21T05:01:59.549Z,7.77
2023-01-21T05:06:01.559Z,7.90
2023-01-21T05:10:03.899Z,8.20
2023-01-21T05:14:05.790Z,7.63
2023-01-21T05:18:07.750Z,7.97
2023-01-21T05:22:09.651Z,8.13
2023-01-21T05:26:11.603Z,7.80
2023-01-21T05:30:13.766Z,7.37
2023-01-21T05:34:15.881Z,8.27
2023-01-21T05:38:17.814Z,8.33
2023-01-21T05:42:19.757Z,9.07
2023-01-21T05:46:21.833Z,10.83
2023-01-21T05:50:23.787Z,9.43
2023-01-21T05:54:25.721Z,9.97
2023-01-21T05:58:27.901Z,9.87
2023-01-21T06:02:29.813Z,11.87
2023-01-21T06:06:31.804Z,12.17
2023-01-21T06:10:34.042Z,10.80
2023-01-21T06:14:35.942Z,13.00
2023-01-21T06:18:37.878Z,11.93
2023-01-21T06:22:39.965Z,12.07
2023-01-21T06:26:41.865Z,12.27
2023-01-21T06:30:43.988Z,12.53
2023-01-21T06:34:47.566Z,13.07
2023-01-21T06:38:49.527Z,11.87
2023-01-21T06:42:51.726Z,12.20
2023-01-21T06:47:00.604Z,12.30
2023-01-21T06:51:03.508Z,13.20
2023-01-21T06:55:05.973Z,14.07
2023-01-21T06:59:07.956Z,13.60
2023-01-21T07:03:10.012Z,14.43
2023-01-21T07:07:11.888Z,13.90
2023-01-21T07:11:13.772Z,13.67
2023-01-21T07:15:16.295Z,14.40
2023-01-21T07:19:18.439Z,14.37
2023-01-21T07:23:20.814Z,15.87
2023-01-21T07:27:22.777Z,14.03
2023-01-21T07:31:25.045Z,15.67
2023-01-21T07:35:27.061Z,14.57
2023-01-21T07:39:29.035Z,14.00
2023-01-21T07:43:30.957Z,13.27
2023-01-21T07:47:32.939Z,12.90
2023-01-21T07:51:34.904Z,13.23
2023-01-21T07:55:36.912Z,14.13
2023-01-21T07:59:38.867Z,23.07
2023-01-21T08:03:41.037Z,26.23
2023-01-21T08:07:43.039Z,14.53
2023-01-21T08:11:45.102Z,13.60
2023-01-21T08:15:55.138Z,15.50
2023-01-21T08:19:57.407Z,14.57
2023-01-21T08:23:59.512Z,14.43
2023-01-21T08:28:01.568Z,14.53
2023-01-21T08:32:03.575Z,15.50
2023-01-21T08:36:07.687Z,14.77
2023-01-21T08:40:11.961Z,14.90
2023-01-21T08:44:13.862Z,15.60
2023-01-21T08:48:15.772Z,15.87
2023-01-21T08:52:17.738Z,15.57
2023-01-21T08:56:20.027Z,16.90
2023-01-21T09:00:23.924Z,14.87
2023-01-21T09:04:25.951Z,14.50
2023-01-21T09:08:28.174Z,14.90
2023-01-21T09:12:30.114Z,12.40
2023-01-21T09:16:32.498Z,14.40
2023-01-21T09:20:34.585Z,14.97
2023-01-21T09:24:36.551Z,12.10
2023-01-21T09:28:40.013Z,14.53
2023-01-21T09:32:41.969Z,12.70
2023-01-21T09:36:44.001Z,11.93
2023-01-21T09:40:46.197Z,12.10
2023-01-21T09:44:53.650Z,11.30
2023-01-21T09:48:56.923Z,13.60
2023-01-21T09:53:10.928Z,14.33
2023-01-21T09:57:19.857Z,12.80
2023-01-21T10:01:27.793Z,13.17
2023-01-21T10:05:31.229Z,11.33
2023-01-21T10:09:49.375Z,11.87
2023-01-21T10:14:03.095Z,11.50
2023-01-21T10:18:20.244Z,10.33
2023-01-21T10:22:26.621Z,11.83
2023-01-21T10:26:31.203Z,12.03
2023-01-21T10:30:39.043Z,12.30
2023-01-21T10:34:58.576Z,14.73
2023-01-21T10:39:14.511Z,11.50
2023-01-21T10:43:19.286Z,10.87
2023-01-21T10:47:30.146Z,11.63
2023-01-21T10:51:48.540Z,11.27
2023-01-21T10:56:04.512Z,12.53
2023-01-21T11:00:21.720Z,11.97
2023-01-21T11:04:27.909Z,13.17
2023-01-21T11:08:30.605Z,12.33
2023-01-21T11:12:33.002Z,13.93
2023-01-21T11:16:39.986Z,16.00
2023-01-21T11:20:43.235Z,21.90
2023-01-21T11:24:50.589Z,13.30
2023-01-21T11:29:11.430Z,13.13
2023-01-21T11:33:19.478Z,12.67
2023-01-21T11:37:25.319Z,12.37
2023-01-21T11:41:27.770Z,13.27
2023-01-21T11:45:36.758Z,12.07
2023-01-21T11:49:47.840Z,13.80
2023-01-21T11:54:06.563Z,13.47
2023-01-21T11:58:20.680Z,13.93
2023-01-21T12:02:27.649Z,13.27
2023-01-21T12:06:30.808Z,13.47
2023-01-21T12:10:42.076Z,13.77
2023-01-21T12:14:58.127Z,13.57
2023-01-21T12:19:18.310Z,13.20
2023-01-21T12:23:23.101Z,19.00
2023-01-21T12:27:34.035Z,12.50
2023-01-21T12:31:48.850Z,13.70
2023-01-21T12:36:07.106Z,13.80
2023-01-21T12:40:48.239Z,12.47
2023-01-21T12:44:59.263Z,12.67
2023-01-21T12:49:12.649Z,13.03
2023-01-21T12:53:35.207Z,13.03
2023-01-21T12:57:49.060Z,11.63
2023-01-21T13:01:57.558Z,13.20
2023-01-21T13:06:54.229Z,13.40
2023-01-21T13:11:05.988Z,12.10
2023-01-21T13:15:16.606Z,14.03
2023-01-21T13:19:18.591Z,13.90
2023-01-21T13:23:45.508Z,16.70
2023-01-21T13:28:13.536Z,13.63
2023-01-21T13:32:31.383Z,17.10
2023-01-21T13:37:04.635Z,13.40
2023-01-21T13:41:45.334Z,12.20
2023-01-21T13:46:02.153Z,12.23
2023-01-21T13:50:28.846Z,11.90
2023-01-21T13:54:58.131Z,11.20
2023-01-21T13:59:16.417Z,13.33
2023-01-21T14:03:24.110Z,10.70
2023-01-21T14:07:30.226Z,11.33
2023-01-21T14:11:36.502Z,12.37
2023-01-21T14:16:03.420Z,10.50
2023-01-21T14:20:08.393Z,10.70
2023-01-21T14:24:44.280Z,11.13
2023-01-21T14:29:16.967Z,11.23
2023-01-21T14:33:25.694Z,10.97
2023-01-21T14:37:27.521Z,12.10
2023-01-21T14:42:01.080Z,11.80
2023-01-21T14:46:22.591Z,10.23
2023-01-21T14:50:42.910Z,10.80
2023-01-21T14:54:46.419Z,10.33
2023-01-21T14:58:57.960Z,8.53
2023-01-21T15:03:13.673Z,8.53
2023-01-21T15:07:19.423Z,9.70
2023-01-21T15:11:30.458Z,8.87
2023-01-21T15:15:41.367Z,7.70
2023-01-21T15:19:43.267Z,7.83
2023-01-21T15:23:45.150Z,8.83
2023-01-21T15:28:23.963Z,9.67
2023-01-21T15:32:34.790Z,10.70
2023-01-21T15:36:57.344Z,15.20
2023-01-21T15:41:10.997Z,9.00
2023-01-21T15:45:28.105Z,8.33
2023-01-21T15:50:06.229Z,7.33
2023-01-21T15:54:37.043Z,9.37
2023-01-21T15:59:19.282Z,8.93
2023-01-21T16:03:33.166Z,8.63
2023-01-21T16:07:51.103Z,10.57
2023-01-21T16:12:02.072Z,8.83
2023-01-21T16:16:10.153Z,10.40
2023-01-21T16:20:13.347Z,9.40
2023-01-21T16:24:19.023Z,8.50
2023-01-21T16:28:21.363Z,9.73
2023-01-21T16:32:23.524Z,10.20
2023-01-21T16:36:25.517Z,11.80
2023-01-21T16:40:30.042Z,11.07
2023-01-21T16:44:36.977Z,11.57
2023-01-21T16:48:39.665Z,14.20
2023-01-21T16:52:41.662Z,13.67
2023-01-21T16:56:48.842Z,11.57
2023-01-21T17:01:00.281Z,8.70
2023-01-21T17:05:05.212Z,8.73
2023-01-21T17:09:18.682Z,8.07
2023-01-21T17:13:22.814Z,8.87
2023-01-21T17:17:29.108Z,9.23
2023-01-21T17:21:36.442Z,22.50
2023-01-21T17:25:38.550Z,10.27
2023-01-21T17:29:41.137Z,10.90
2023-01-21T17:33:44.502Z,16.33
2023-01-21T17:38:02.621Z,15.47
2023-01-21T17:42:04.898Z,11.20
2023-01-21T17:46:07.145Z,8.93
2023-01-21T17:50:12.455Z,8.43
2023-01-21T17:54:21.991Z,8.03
2023-01-21T17:58:45.985Z,8.20
2023-01-21T18:02:48.039Z,7.73
2023-01-21T18:06:52.156Z,8.57
2023-01-21T18:10:54.101Z,8.37
2023-01-21T18:14:56.173Z,8.83
2023-01-21T18:18:58.186Z,9.30
2023-01-21T18:23:00.559Z,12.37
2023-01-21T18:27:03.094Z,11.33
2023-01-21T18:31:05.196Z,8.90
2023-01-21T18:35:07.477Z,8.93
2023-01-21T18:39:18.377Z,8.40
2023-01-21T18:43:20.296Z,9.13
2023-01-21T18:47:22.763Z,9.43
2023-01-21T18:51:26.362Z,8.90
2023-01-21T18:55:29.972Z,9.27
2023-01-21T18:59:31.867Z,10.23
2023-01-21T19:03:33.835Z,9.23
2023-01-21T19:07:36.097Z,9.57
2023-01-21T19:11:38.112Z,9.00
2023-01-21T19:15:41.722Z,19.93
2023-01-21T19:19:43.868Z,8.70
2023-01-21T19:23:45.864Z,9.67
2023-01-21T19:27:51.275Z,9.63
2023-01-21T19:31:53.274Z,9.23
2023-01-21T19:36:02.287Z,8.17
2023-01-21T19:40:13.271Z,10.03
2023-01-21T19:44:15.207Z,11.93
2023-01-21T19:48:19.876Z,9.13
2023-01-21T19:52:21.687Z,9.03
2023-01-21T19:56:24.375Z,9.43
2023-01-21T20:00:33.832Z,10.97
2023-01-21T20:04:35.807Z,10.30
2023-01-21T20:08:37.756Z,10.33
2023-01-21T20:12:40.128Z,10.43
2023-01-21T20:16:50.059Z,10.60
2023-01-21T20:20:53.036Z,9.47
2023-01-21T20:24:55.008Z,10.27
2023-01-21T20:28:58.087Z,11.03
2023-01-21T20:33:03.135Z,10.80
2023-01-21T20:37:05.040Z,10.40
2023-01-21T20:41:06.866Z,11.53
2023-01-21T20:45:11.450Z,12.30
2023-01-21T20:49:13.376Z,11.33
2023-01-21T20:53:15.203Z,11.80
2023-01-21T20:57:17.023Z,11.27
2023-01-21T21:01:21.409Z,11.23
2023-01-21T21:05:24.710Z,10.53
2023-01-21T21:09:26.606Z,11.13
2023-01-21T21:13:28.413Z,10.50
2023-01-21T21:17:30.367Z,10.90
2023-01-21T21:21:32.425Z,10.20
2023-01-21T21:25:39.774Z,11.50
2023-01-21T21:29:41.741Z,9.53
2023-01-21T21:33:44.412Z,10.20
2023-01-21T21:37:46.338Z,9.17
2023-01-21T21:42:06.656Z,9.03
2023-01-21T21:46:28.515Z,9.00
2023-01-21T21:50:30.475Z,11.20
2023-01-21T21:54:32.627Z,9.27
2023-01-21T21:58:35.101Z,8.60
2023-01-21T22:02:37.209Z,9.87
2023-01-21T22:06:39.831Z,8.57
2023-01-21T22:10:41.751Z,8.20
2023-01-21T22:14:43.713Z,9.77
2023-01-21T22:18:46.205Z,10.10
2023-01-21T22:22:48.166Z,9.13
2023-01-21T22:26:50.152Z,8.93
2023-01-21T22:30:52.306Z,9.23
2023-01-21T22:34:54.363Z,9.67
2023-01-21T22:38:56.778Z,8.60
2023-01-21T22:42:58.775Z,8.83
2023-01-21T22:47:00.705Z,8.47
2023-01-21T22:51:02.642Z,9.07
2023-01-21T22:55:05.118Z,8.93
2023-01-21T22:59:07.076Z,8.60
2023-01-21T23:03:09.516Z,7.40
2023-01-21T23:07:11.517Z,9.57
2023-01-21T23:11:15.454Z,8.17
2023-01-21T23:15:17.481Z,8.37
2023-01-21T23:19:19.876Z,7.73
2023-01-21T23:23:21.825Z,7.63
2023-01-21T23:27:23.885Z,7.17
2023-01-21T23:31:26.226Z,7.53
2023-01-21T23:35:28.715Z,6.70
2023-01-21T23:39:30.605Z,7.33
2023-01-21T23:43:32.796Z,6.90
2023-01-21T23:47:34.931Z,7.43
2023-01-21T23:51:36.924Z,7.20
2023-01-21T23:55:38.789Z,6.57
2023-01-21T23:59:40.657Z,7.57
